sensor_id;sensor_type;location;lat;lon;timestamp;P1;durP1;ratioP1;P2;durP2;ratioP2
75209;SDS011;63796;53.136;14.882;2022-10-18T00:00:09;11.83;;;6.10;;
75209;SDS011;63796;53.136;14.882;2022-10-18T00:02:38;7.80;;;6.22;;
75209;SDS011;63796;53.136;14.882;2022-10-18T00:05:05;14.75;;;6.67;;
75209;SDS011;63796;53.136;14.882;2022-10-18T00:07:33;12.25;;;6.58;;
75209;SDS011;63796;53.136;14.882;2022-10-18T00:10:00;12.75;;;6.70;;
75209;SDS011;63796;53.136;14.882;2022-10-18T00:12:26;10.90;;;6.33;;
75209;SDS011;63796;53.136;14.882;2022-10-18T00:14:53;12.07;;;6.60;;
75209;SDS011;63796;53.136;14.882;2022-10-18T00:17:20;9.63;;;6.25;;
75209;SDS011;63796;53.136;14.882;2022-10-18T00:19:47;10.00;;;6.42;;
75209;SDS011;63796;53.136;14.882;2022-10-18T00:22:15;8.38;;;6.15;;
75209;SDS011;63796;53.136;14.882;2022-10-18T00:24:42;9.90;;;6.50;;
75209;SDS011;63796;53.136;14.882;2022-10-18T00:27:08;13.32;;;7.35;;
75209;SDS011;63796;53.136;14.882;2022-10-18T00:29:35;10.00;;;6.62;;
75209;SDS011;63796;53.136;14.882;2022-10-18T00:32:02;12.70;;;6.17;;
75209;SDS011;63796;53.136;14.882;2022-10-18T00:34:29;15.98;;;7.00;;
75209;SDS011;63796;53.136;14.882;2022-10-18T00:36:56;13.63;;;6.73;;
75209;SDS011;63796;53.136;14.882;2022-10-18T00:39:23;12.07;;;6.05;;
75209;SDS011;63796;53.136;14.882;2022-10-18T00:41:50;12.90;;;6.58;;
75209;SDS011;63796;53.136;14.882;2022-10-18T00:46:56;10.43;;;5.92;;
75209;SDS011;63796;53.136;14.882;2022-10-18T00:49:35;14.80;;;5.63;;
75209;SDS011;63796;53.136;14.882;2022-10-18T00:52:09;11.10;;;5.95;;
75209;SDS011;63796;53.136;14.882;2022-10-18T00:54:46;10.28;;;5.20;;
75209;SDS011;63796;53.136;14.882;2022-10-18T00:57:15;9.38;;;4.87;;
75209;SDS011;63796;53.136;14.882;2022-10-18T00:59:43;8.53;;;4.65;;
75209;SDS011;63796;53.136;14.882;2022-10-18T01:02:12;5.87;;;4.40;;
75209;SDS011;63796;53.136;14.882;2022-10-18T01:04:41;7.00;;;4.37;;
75209;SDS011;63796;53.136;14.882;2022-10-18T01:19:01;6.42;;;4.37;;
75209;SDS011;63796;53.136;14.882;2022-10-18T01:21:53;5.53;;;4.03;;
75209;SDS011;63796;53.136;14.882;2022-10-18T01:27:33;7.83;;;4.35;;
75209;SDS011;63796;53.136;14.882;2022-10-18T01:36:14;8.40;;;4.45;;
75209;SDS011;63796;53.136;14.882;2022-10-18T01:38:38;6.72;;;4.55;;
75209;SDS011;63796;53.136;14.882;2022-10-18T01:41:08;6.40;;;4.75;;
75209;SDS011;63796;53.136;14.882;2022-10-18T01:43:39;10.60;;;5.83;;
75209;SDS011;63796;53.136;14.882;2022-10-18T01:46:08;7.75;;;5.10;;
75209;SDS011;63796;53.136;14.882;2022-10-18T01:48:38;6.25;;;5.03;;
75209;SDS011;63796;53.136;14.882;2022-10-18T01:51:05;9.08;;;4.83;;
75209;SDS011;63796;53.136;14.882;2022-10-18T01:53:32;6.70;;;4.67;;
75209;SDS011;63796;53.136;14.882;2022-10-18T01:58:55;6.75;;;4.70;;
75209;SDS011;63796;53.136;14.882;2022-10-18T02:07:34;8.10;;;5.17;;
75209;SDS011;63796;53.136;14.882;2022-10-18T02:13:04;9.20;;;4.47;;
75209;SDS011;63796;53.136;14.882;2022-10-18T02:15:33;8.28;;;4.85;;
75209;SDS011;63796;53.136;14.882;2022-10-18T02:18:05;6.53;;;4.60;;
75209;SDS011;63796;53.136;14.882;2022-10-18T02:20:43;8.65;;;5.25;;
75209;SDS011;63796;53.136;14.882;2022-10-18T02:23:13;9.90;;;4.87;;
75209;SDS011;63796;53.136;14.882;2022-10-18T02:25:44;8.03;;;5.22;;
75209;SDS011;63796;53.136;14.882;2022-10-18T02:28:10;8.55;;;4.92;;
75209;SDS011;63796;53.136;14.882;2022-10-18T02:30:43;8.70;;;5.33;;
75209;SDS011;63796;53.136;14.882;2022-10-18T02:33:26;7.58;;;5.72;;
75209;SDS011;63796;53.136;14.882;2022-10-18T02:36:02;10.43;;;6.10;;
75209;SDS011;63796;53.136;14.882;2022-10-18T02:38:48;8.30;;;5.55;;
75209;SDS011;63796;53.136;14.882;2022-10-18T02:41:22;8.63;;;5.53;;
75209;SDS011;63796;53.136;14.882;2022-10-18T02:43:52;7.55;;;5.42;;
75209;SDS011;63796;53.136;14.882;2022-10-18T02:46:19;10.38;;;5.83;;
75209;SDS011;63796;53.136;14.882;2022-10-18T02:48:46;9.40;;;5.97;;
75209;SDS011;63796;53.136;14.882;2022-10-18T02:51:13;9.55;;;5.67;;
75209;SDS011;63796;53.136;14.882;2022-10-18T02:53:40;7.72;;;5.17;;
75209;SDS011;63796;53.136;14.882;2022-10-18T02:56:06;8.88;;;5.28;;
75209;SDS011;63796;53.136;14.882;2022-10-18T02:58:34;10.43;;;5.45;;
75209;SDS011;63796;53.136;14.882;2022-10-18T03:01:01;7.00;;;5.50;;
75209;SDS011;63796;53.136;14.882;2022-10-18T03:03:27;8.08;;;5.75;;
75209;SDS011;63796;53.136;14.882;2022-10-18T03:05:54;9.13;;;6.30;;
75209;SDS011;63796;53.136;14.882;2022-10-18T03:08:21;10.23;;;5.83;;
75209;SDS011;63796;53.136;14.882;2022-10-18T03:10:48;8.75;;;6.53;;
75209;SDS011;63796;53.136;14.882;2022-10-18T03:13:15;9.47;;;7.23;;
75209;SDS011;63796;53.136;14.882;2022-10-18T03:15:42;11.97;;;7.10;;
75209;SDS011;63796;53.136;14.882;2022-10-18T03:18:09;16.27;;;7.45;;
75209;SDS011;63796;53.136;14.882;2022-10-18T03:20:36;15.90;;;7.67;;
75209;SDS011;63796;53.136;14.882;2022-10-18T03:23:03;10.85;;;6.80;;
75209;SDS011;63796;53.136;14.882;2022-10-18T03:25:30;14.13;;;7.30;;
75209;SDS011;63796;53.136;14.882;2022-10-18T03:27:57;10.85;;;7.10;;
75209;SDS011;63796;53.136;14.882;2022-10-18T03:30:23;11.03;;;7.95;;
75209;SDS011;63796;53.136;14.882;2022-10-18T03:32:50;11.93;;;7.00;;
75209;SDS011;63796;53.136;14.882;2022-10-18T03:35:19;9.03;;;7.25;;
75209;SDS011;63796;53.136;14.882;2022-10-18T03:37:46;9.07;;;7.20;;
75209;SDS011;63796;53.136;14.882;2022-10-18T03:40:13;10.60;;;7.78;;
75209;SDS011;63796;53.136;14.882;2022-10-18T03:42:40;9.30;;;7.40;;
75209;SDS011;63796;53.136;14.882;2022-10-18T03:45:07;11.43;;;7.97;;
75209;SDS011;63796;53.136;14.882;2022-10-18T03:47:34;11.40;;;8.03;;
75209;SDS011;63796;53.136;14.882;2022-10-18T03:50:01;10.50;;;6.73;;
75209;SDS011;63796;53.136;14.882;2022-10-18T03:52:28;8.90;;;7.05;;
75209;SDS011;63796;53.136;14.882;2022-10-18T03:54:56;13.53;;;7.85;;
75209;SDS011;63796;53.136;14.882;2022-10-18T03:57:22;10.98;;;7.72;;
75209;SDS011;63796;53.136;14.882;2022-10-18T03:59:49;14.43;;;8.58;;
75209;SDS011;63796;53.136;14.882;2022-10-18T04:02:16;13.27;;;8.60;;
75209;SDS011;63796;53.136;14.882;2022-10-18T04:04:43;11.30;;;7.75;;
75209;SDS011;63796;53.136;14.882;2022-10-18T04:07:10;14.23;;;8.15;;
75209;SDS011;63796;53.136;14.882;2022-10-18T04:09:37;14.40;;;8.95;;
75209;SDS011;63796;53.136;14.882;2022-10-18T04:12:03;11.70;;;8.45;;
75209;SDS011;63796;53.136;14.882;2022-10-18T04:14:31;14.97;;;8.20;;
75209;SDS011;63796;53.136;14.882;2022-10-18T04:16:58;12.03;;;8.93;;
75209;SDS011;63796;53.136;14.882;2022-10-18T04:19:25;14.23;;;8.93;;
75209;SDS011;63796;53.136;14.882;2022-10-18T04:21:52;16.17;;;8.83;;
75209;SDS011;63796;53.136;14.882;2022-10-18T04:24:20;15.38;;;8.88;;
75209;SDS011;63796;53.136;14.882;2022-10-18T04:26:47;14.27;;;8.77;;
75209;SDS011;63796;53.136;14.882;2022-10-18T04:29:13;15.65;;;10.03;;
75209;SDS011;63796;53.136;14.882;2022-10-18T04:31:40;13.78;;;9.08;;
75209;SDS011;63796;53.136;14.882;2022-10-18T04:34:08;12.90;;;9.50;;
75209;SDS011;63796;53.136;14.882;2022-10-18T04:36:35;13.60;;;9.28;;
75209;SDS011;63796;53.136;14.882;2022-10-18T04:39:02;16.57;;;9.53;;
75209;SDS011;63796;53.136;14.882;2022-10-18T04:41:29;16.35;;;9.73;;
75209;SDS011;63796;53.136;14.882;2022-10-18T04:43:56;14.93;;;9.23;;
75209;SDS011;63796;53.136;14.882;2022-10-18T04:46:23;12.28;;;8.90;;
75209;SDS011;63796;53.136;14.882;2022-10-18T04:48:50;13.62;;;9.38;;
75209;SDS011;63796;53.136;14.882;2022-10-18T04:51:16;14.43;;;9.87;;
75209;SDS011;63796;53.136;14.882;2022-10-18T04:53:43;14.55;;;9.78;;
75209;SDS011;63796;53.136;14.882;2022-10-18T04:56:10;12.73;;;8.93;;
75209;SDS011;63796;53.136;14.882;2022-10-18T04:58:37;13.22;;;9.30;;
75209;SDS011;63796;53.136;14.882;2022-10-18T05:01:04;11.03;;;9.78;;
75209;SDS011;63796;53.136;14.882;2022-10-18T05:03:32;13.23;;;8.90;;
75209;SDS011;63796;53.136;14.882;2022-10-18T05:05:59;11.30;;;9.95;;
75209;SDS011;63796;53.136;14.882;2022-10-18T05:08:26;14.13;;;9.88;;
75209;SDS011;63796;53.136;14.882;2022-10-18T05:10:54;14.23;;;10.50;;
75209;SDS011;63796;53.136;14.882;2022-10-18T05:13:21;16.32;;;9.68;;
75209;SDS011;63796;53.136;14.882;2022-10-18T05:15:48;15.20;;;10.90;;
75209;SDS011;63796;53.136;14.882;2022-10-18T05:18:15;14.45;;;10.50;;
75209;SDS011;63796;53.136;14.882;2022-10-18T05:20:42;12.95;;;9.70;;
75209;SDS011;63796;53.136;14.882;2022-10-18T05:23:09;15.72;;;9.98;;
75209;SDS011;63796;53.136;14.882;2022-10-18T05:25:38;13.13;;;9.73;;
75209;SDS011;63796;53.136;14.882;2022-10-18T05:28:07;12.87;;;9.50;;
75209;SDS011;63796;53.136;14.882;2022-10-18T05:30:36;13.62;;;9.88;;
75209;SDS011;63796;53.136;14.882;2022-10-18T05:33:04;14.38;;;9.80;;
75209;SDS011;63796;53.136;14.882;2022-10-18T05:35:31;16.27;;;10.68;;
75209;SDS011;63796;53.136;14.882;2022-10-18T05:38:03;19.42;;;10.55;;
75209;SDS011;63796;53.136;14.882;2022-10-18T05:40:31;17.03;;;12.73;;
75209;SDS011;63796;53.136;14.882;2022-10-18T05:42:58;15.80;;;11.57;;
75209;SDS011;63796;53.136;14.882;2022-10-18T05:45:25;15.03;;;10.72;;
75209;SDS011;63796;53.136;14.882;2022-10-18T05:47:53;18.20;;;11.25;;
75209;SDS011;63796;53.136;14.882;2022-10-18T05:50:20;21.20;;;11.68;;
75209;SDS011;63796;53.136;14.882;2022-10-18T05:52:46;20.70;;;10.83;;
75209;SDS011;63796;53.136;14.882;2022-10-18T05:55:13;14.53;;;9.98;;
75209;SDS011;63796;53.136;14.882;2022-10-18T05:57:40;20.12;;;11.48;;
75209;SDS011;63796;53.136;14.882;2022-10-18T06:00:08;18.92;;;11.05;;
75209;SDS011;63796;53.136;14.882;2022-10-18T06:02:36;14.93;;;10.48;;
75209;SDS011;63796;53.136;14.882;2022-10-18T06:05:03;18.97;;;11.23;;
75209;SDS011;63796;53.136;14.882;2022-10-18T06:07:30;17.35;;;10.68;;
75209;SDS011;63796;53.136;14.882;2022-10-18T06:09:58;14.35;;;10.40;;
75209;SDS011;63796;53.136;14.882;2022-10-18T06:12:25;16.97;;;10.95;;
75209;SDS011;63796;53.136;14.882;2022-10-18T06:14:52;14.28;;;11.10;;
75209;SDS011;63796;53.136;14.882;2022-10-18T06:17:19;18.57;;;13.43;;
75209;SDS011;63796;53.136;14.882;2022-10-18T06:19:46;23.32;;;17.92;;
75209;SDS011;63796;53.136;14.882;2022-10-18T06:22:13;31.80;;;20.60;;
75209;SDS011;63796;53.136;14.882;2022-10-18T06:24:39;13.30;;;10.53;;
75209;SDS011;63796;53.136;14.882;2022-10-18T06:27:06;15.28;;;10.00;;
75209;SDS011;63796;53.136;14.882;2022-10-18T06:29:37;16.10;;;10.50;;
75209;SDS011;63796;53.136;14.882;2022-10-18T06:32:06;18.35;;;11.00;;
75209;SDS011;63796;53.136;14.882;2022-10-18T06:34:33;20.17;;;10.15;;
75209;SDS011;63796;53.136;14.882;2022-10-18T06:37:00;15.65;;;11.05;;
75209;SDS011;63796;53.136;14.882;2022-10-18T06:39:27;28.60;;;15.32;;
75209;SDS011;63796;53.136;14.882;2022-10-18T06:41:54;22.80;;;14.73;;
75209;SDS011;63796;53.136;14.882;2022-10-18T06:44:21;25.20;;;16.35;;
75209;SDS011;63796;53.136;14.882;2022-10-18T06:46:48;19.02;;;13.00;;
75209;SDS011;63796;53.136;14.882;2022-10-18T06:49:16;16.85;;;12.00;;
75209;SDS011;63796;53.136;14.882;2022-10-18T06:51:43;14.70;;;10.38;;
75209;SDS011;63796;53.136;14.882;2022-10-18T06:54:10;15.00;;;8.70;;
75209;SDS011;63796;53.136;14.882;2022-10-18T06:56:37;16.55;;;10.55;;
75209;SDS011;63796;53.136;14.882;2022-10-18T06:59:05;13.00;;;9.53;;
75209;SDS011;63796;53.136;14.882;2022-10-18T07:01:32;15.65;;;10.28;;
75209;SDS011;63796;53.136;14.882;2022-10-18T07:03:58;14.73;;;10.08;;
75209;SDS011;63796;53.136;14.882;2022-10-18T07:06:25;20.70;;;12.30;;
75209;SDS011;63796;53.136;14.882;2022-10-18T07:08:52;18.87;;;10.10;;
75209;SDS011;63796;53.136;14.882;2022-10-18T07:11:20;11.03;;;8.75;;
75209;SDS011;63796;53.136;14.882;2022-10-18T07:13:50;13.53;;;8.78;;
75209;SDS011;63796;53.136;14.882;2022-10-18T07:16:19;12.63;;;9.58;;
75209;SDS011;63796;53.136;14.882;2022-10-18T07:18:51;12.80;;;8.83;;
75209;SDS011;63796;53.136;14.882;2022-10-18T07:21:20;12.80;;;9.18;;
75209;SDS011;63796;53.136;14.882;2022-10-18T07:23:50;15.50;;;9.03;;
75209;SDS011;63796;53.136;14.882;2022-10-18T07:28:53;15.38;;;9.33;;
75209;SDS011;63796;53.136;14.882;2022-10-18T07:31:26;13.63;;;8.90;;
75209;SDS011;63796;53.136;14.882;2022-10-18T07:33:54;14.65;;;9.18;;
75209;SDS011;63796;53.136;14.882;2022-10-18T07:36:21;12.18;;;9.13;;
75209;SDS011;63796;53.136;14.882;2022-10-18T07:38:50;14.78;;;9.93;;
75209;SDS011;63796;53.136;14.882;2022-10-18T07:41:17;19.05;;;10.75;;
75209;SDS011;63796;53.136;14.882;2022-10-18T07:43:48;13.47;;;8.90;;
75209;SDS011;63796;53.136;14.882;2022-10-18T07:46:17;12.73;;;8.78;;
75209;SDS011;63796;53.136;14.882;2022-10-18T07:48:46;13.90;;;8.60;;
75209;SDS011;63796;53.136;14.882;2022-10-18T07:51:13;12.53;;;7.17;;
75209;SDS011;63796;53.136;14.882;2022-10-18T07:53:40;11.38;;;8.08;;
75209;SDS011;63796;53.136;14.882;2022-10-18T07:56:08;13.13;;;7.67;;
75209;SDS011;63796;53.136;14.882;2022-10-18T07:58:44;14.83;;;9.10;;
75209;SDS011;63796;53.136;14.882;2022-10-18T08:01:16;17.15;;;9.23;;
75209;SDS011;63796;53.136;14.882;2022-10-18T08:03:43;18.50;;;10.32;;
75209;SDS011;63796;53.136;14.882;2022-10-18T08:06:12;11.63;;;7.33;;
75209;SDS011;63796;53.136;14.882;2022-10-18T08:08:41;13.97;;;7.93;;
75209;SDS011;63796;53.136;14.882;2022-10-18T08:11:12;10.68;;;7.85;;
75209;SDS011;63796;53.136;14.882;2022-10-18T08:13:42;11.38;;;7.78;;
75209;SDS011;63796;53.136;14.882;2022-10-18T08:16:11;11.83;;;7.05;;
75209;SDS011;63796;53.136;14.882;2022-10-18T08:18:41;16.20;;;8.28;;
75209;SDS011;63796;53.136;14.882;2022-10-18T08:21:09;9.33;;;6.80;;
75209;SDS011;63796;53.136;14.882;2022-10-18T08:23:38;13.95;;;7.95;;
75209;SDS011;63796;53.136;14.882;2022-10-18T08:26:07;14.30;;;7.58;;
75209;SDS011;63796;53.136;14.882;2022-10-18T08:28:39;11.03;;;6.90;;
75209;SDS011;63796;53.136;14.882;2022-10-18T08:31:08;13.13;;;7.80;;
75209;SDS011;63796;53.136;14.882;2022-10-18T08:33:38;11.27;;;7.13;;
75209;SDS011;63796;53.136;14.882;2022-10-18T08:36:06;10.78;;;6.83;;
75209;SDS011;63796;53.136;14.882;2022-10-18T08:38:36;11.00;;;7.90;;
75209;SDS011;63796;53.136;14.882;2022-10-18T08:41:18;9.95;;;7.40;;
75209;SDS011;63796;53.136;14.882;2022-10-18T08:43:50;13.18;;;7.62;;
75209;SDS011;63796;53.136;14.882;2022-10-18T08:46:24;13.20;;;7.20;;
75209;SDS011;63796;53.136;14.882;2022-10-18T08:48:50;14.87;;;8.20;;
75209;SDS011;63796;53.136;14.882;2022-10-18T08:51:24;9.43;;;7.05;;
75209;SDS011;63796;53.136;14.882;2022-10-18T08:54:04;10.38;;;6.72;;
75209;SDS011;63796;53.136;14.882;2022-10-18T08:56:40;10.95;;;7.87;;
75209;SDS011;63796;53.136;14.882;2022-10-18T08:59:14;11.37;;;7.43;;
75209;SDS011;63796;53.136;14.882;2022-10-18T09:04:40;12.20;;;7.55;;
75209;SDS011;63796;53.136;14.882;2022-10-18T09:16:14;10.28;;;6.53;;
75209;SDS011;63796;53.136;14.882;2022-10-18T09:27:19;9.57;;;6.10;;
75209;SDS011;63796;53.136;14.882;2022-10-18T09:35:37;10.95;;;6.53;;
75209;SDS011;63796;53.136;14.882;2022-10-18T09:38:03;13.28;;;5.95;;
75209;SDS011;63796;53.136;14.882;2022-10-18T09:40:35;8.23;;;5.13;;
75209;SDS011;63796;53.136;14.882;2022-10-18T09:43:23;10.00;;;6.53;;
75209;SDS011;63796;53.136;14.882;2022-10-18T09:45:55;8.43;;;5.72;;
75209;SDS011;63796;53.136;14.882;2022-10-18T09:51:14;9.33;;;5.85;;
75209;SDS011;63796;53.136;14.882;2022-10-18T09:56:32;9.48;;;5.85;;
75209;SDS011;63796;53.136;14.882;2022-10-18T10:02:14;10.45;;;5.53;;
75209;SDS011;63796;53.136;14.882;2022-10-18T10:04:45;7.90;;;4.80;;
75209;SDS011;63796;53.136;14.882;2022-10-18T10:07:20;9.10;;;4.60;;
75209;SDS011;63796;53.136;14.882;2022-10-18T10:09:48;9.28;;;4.47;;
75209;SDS011;63796;53.136;14.882;2022-10-18T10:12:31;7.87;;;4.95;;
75209;SDS011;63796;53.136;14.882;2022-10-18T10:15:17;7.90;;;4.45;;
75209;SDS011;63796;53.136;14.882;2022-10-18T10:20:41;7.13;;;5.40;;
75209;SDS011;63796;53.136;14.882;2022-10-18T10:28:59;8.33;;;5.70;;
75209;SDS011;63796;53.136;14.882;2022-10-18T10:31:27;7.45;;;5.92;;
75209;SDS011;63796;53.136;14.882;2022-10-18T10:34:13;10.10;;;6.70;;
75209;SDS011;63796;53.136;14.882;2022-10-18T10:36:45;13.35;;;6.80;;
75209;SDS011;63796;53.136;14.882;2022-10-18T10:39:18;11.33;;;6.30;;
75209;SDS011;63796;53.136;14.882;2022-10-18T10:41:51;9.10;;;5.47;;
75209;SDS011;63796;53.136;14.882;2022-10-18T10:44:22;8.40;;;6.20;;
75209;SDS011;63796;53.136;14.882;2022-10-18T10:46:58;10.13;;;6.70;;
75209;SDS011;63796;53.136;14.882;2022-10-18T10:49:41;12.03;;;6.97;;
75209;SDS011;63796;53.136;14.882;2022-10-18T10:52:06;10.25;;;7.03;;
75209;SDS011;63796;53.136;14.882;2022-10-18T10:54:44;9.78;;;5.95;;
75209;SDS011;63796;53.136;14.882;2022-10-18T10:59:45;8.73;;;6.07;;
75209;SDS011;63796;53.136;14.882;2022-10-18T11:04:50;7.20;;;5.10;;
75209;SDS011;63796;53.136;14.882;2022-10-18T11:07:32;7.47;;;5.25;;
75209;SDS011;63796;53.136;14.882;2022-10-18T11:12:52;9.67;;;6.07;;
75209;SDS011;63796;53.136;14.882;2022-10-18T11:15:49;9.35;;;5.42;;
75209;SDS011;63796;53.136;14.882;2022-10-18T11:18:28;10.25;;;6.05;;
75209;SDS011;63796;53.136;14.882;2022-10-18T11:21:05;8.55;;;6.08;;
75209;SDS011;63796;53.136;14.882;2022-10-18T11:23:37;9.68;;;5.97;;
75209;SDS011;63796;53.136;14.882;2022-10-18T11:26:12;10.80;;;5.80;;
75209;SDS011;63796;53.136;14.882;2022-10-18T11:41:05;26.23;;;19.03;;
75209;SDS011;63796;53.136;14.882;2022-10-18T11:44:20;41.35;;;25.92;;
75209;SDS011;63796;53.136;14.882;2022-10-18T11:47:10;27.35;;;15.70;;
75209;SDS011;63796;53.136;14.882;2022-10-18T12:01:37;57.93;;;22.60;;
75209;SDS011;63796;53.136;14.882;2022-10-18T12:04:11;103.17;;;40.83;;
75209;SDS011;63796;53.136;14.882;2022-10-18T12:06:44;16.12;;;8.20;;
75209;SDS011;63796;53.136;14.882;2022-10-18T12:12:00;7.67;;;6.12;;
75209;SDS011;63796;53.136;14.882;2022-10-18T12:14:47;44.15;;;20.68;;
75209;SDS011;63796;53.136;14.882;2022-10-18T12:17:19;90.20;;;42.25;;
75209;SDS011;63796;53.136;14.882;2022-10-18T12:20:16;22.50;;;12.45;;
75209;SDS011;63796;53.136;14.882;2022-10-18T12:22:48;15.60;;;8.20;;
75209;SDS011;63796;53.136;14.882;2022-10-18T12:25:28;14.50;;;9.30;;
75209;SDS011;63796;53.136;14.882;2022-10-18T12:31:06;44.80;;;27.75;;
75209;SDS011;63796;53.136;14.882;2022-10-18T12:34:23;56.35;;;30.25;;
75209;SDS011;63796;53.136;14.882;2022-10-18T12:37:13;24.10;;;14.23;;
75209;SDS011;63796;53.136;14.882;2022-10-18T12:39:55;10.75;;;8.18;;
75209;SDS011;63796;53.136;14.882;2022-10-18T12:42:29;14.50;;;8.05;;
75209;SDS011;63796;53.136;14.882;2022-10-18T12:45:02;25.88;;;12.47;;
75209;SDS011;63796;53.136;14.882;2022-10-18T12:47:44;8.80;;;6.65;;
75209;SDS011;63796;53.136;14.882;2022-10-18T12:53:14;21.27;;;15.45;;
75209;SDS011;63796;53.136;14.882;2022-10-18T12:55:45;12.30;;;8.73;;
75209;SDS011;63796;53.136;14.882;2022-10-18T13:00:52;29.72;;;15.58;;
75209;SDS011;63796;53.136;14.882;2022-10-18T13:05:57;14.25;;;8.93;;
75209;SDS011;63796;53.136;14.882;2022-10-18T13:19:27;24.77;;;15.05;;
75209;SDS011;63796;53.136;14.882;2022-10-18T13:22:20;9.35;;;8.10;;
75209;SDS011;63796;53.136;14.882;2022-10-18T13:34:31;9.50;;;7.90;;
75209;SDS011;63796;53.136;14.882;2022-10-18T13:39:40;11.43;;;8.93;;
75209;SDS011;63796;53.136;14.882;2022-10-18T13:51:11;11.22;;;7.80;;
75209;SDS011;63796;53.136;14.882;2022-10-18T13:57:16;10.90;;;7.53;;
75209;SDS011;63796;53.136;14.882;2022-10-18T13:59:39;8.83;;;6.83;;
75209;SDS011;63796;53.136;14.882;2022-10-18T14:11:41;10.98;;;7.00;;
75209;SDS011;63796;53.136;14.882;2022-10-18T14:20:17;12.28;;;7.15;;
75209;SDS011;63796;53.136;14.882;2022-10-18T14:23:00;11.43;;;6.42;;
75209;SDS011;63796;53.136;14.882;2022-10-18T14:25:46;12.93;;;7.28;;
75209;SDS011;63796;53.136;14.882;2022-10-18T14:28:17;9.13;;;5.90;;
75209;SDS011;63796;53.136;14.882;2022-10-18T14:30:50;9.65;;;6.17;;
75209;SDS011;63796;53.136;14.882;2022-10-18T14:33:56;11.75;;;6.30;;
75209;SDS011;63796;53.136;14.882;2022-10-18T14:36:13;11.90;;;7.35;;
75209;SDS011;63796;53.136;14.882;2022-10-18T14:38:48;8.80;;;5.95;;
75209;SDS011;63796;53.136;14.882;2022-10-18T14:41:29;10.57;;;5.27;;
75209;SDS011;63796;53.136;14.882;2022-10-18T14:44:15;7.97;;;5.67;;
75209;SDS011;63796;53.136;14.882;2022-10-18T14:46:44;8.50;;;5.62;;
75209;SDS011;63796;53.136;14.882;2022-10-18T14:49:16;12.40;;;5.83;;
75209;SDS011;63796;53.136;14.882;2022-10-18T14:51:46;9.28;;;5.83;;
75209;SDS011;63796;53.136;14.882;2022-10-18T14:54:22;8.83;;;5.83;;
75209;SDS011;63796;53.136;14.882;2022-10-18T14:56:52;9.10;;;5.30;;
75209;SDS011;63796;53.136;14.882;2022-10-18T14:59:19;9.63;;;5.90;;
75209;SDS011;63796;53.136;14.882;2022-10-18T15:04:29;10.40;;;5.40;;
75209;SDS011;63796;53.136;14.882;2022-10-18T15:07:00;9.77;;;5.30;;
75209;SDS011;63796;53.136;14.882;2022-10-18T15:09:32;7.92;;;5.00;;
75209;SDS011;63796;53.136;14.882;2022-10-18T15:12:02;7.00;;;4.25;;
75209;SDS011;63796;53.136;14.882;2022-10-18T15:14:32;9.43;;;5.22;;
75209;SDS011;63796;53.136;14.882;2022-10-18T15:17:02;14.65;;;5.95;;
75209;SDS011;63796;53.136;14.882;2022-10-18T15:19:58;9.27;;;4.63;;
75209;SDS011;63796;53.136;14.882;2022-10-18T15:22:29;7.67;;;4.60;;
75209;SDS011;63796;53.136;14.882;2022-10-18T15:27:48;10.63;;;5.03;;
75209;SDS011;63796;53.136;14.882;2022-10-18T15:30:23;7.70;;;4.67;;
75209;SDS011;63796;53.136;14.882;2022-10-18T15:32:58;8.07;;;4.57;;
75209;SDS011;63796;53.136;14.882;2022-10-18T15:35:28;13.40;;;5.03;;
75209;SDS011;63796;53.136;14.882;2022-10-18T15:38:01;13.53;;;4.95;;
75209;SDS011;63796;53.136;14.882;2022-10-18T15:40:41;10.70;;;4.92;;
75209;SDS011;63796;53.136;14.882;2022-10-18T15:46:01;7.93;;;4.73;;
75209;SDS011;63796;53.136;14.882;2022-10-18T15:51:07;9.03;;;4.30;;
75209;SDS011;63796;53.136;14.882;2022-10-18T15:54:18;10.25;;;5.30;;
75209;SDS011;63796;53.136;14.882;2022-10-18T15:57:01;10.88;;;6.12;;
75209;SDS011;63796;53.136;14.882;2022-10-18T15:59:35;11.80;;;6.20;;
75209;SDS011;63796;53.136;14.882;2022-10-18T16:02:00;9.35;;;5.47;;
75209;SDS011;63796;53.136;14.882;2022-10-18T16:04:28;9.78;;;4.87;;
75209;SDS011;63796;53.136;14.882;2022-10-18T16:06:58;9.88;;;5.42;;
75209;SDS011;63796;53.136;14.882;2022-10-18T16:09:26;9.55;;;4.80;;
75209;SDS011;63796;53.136;14.882;2022-10-18T16:12:08;9.13;;;4.63;;
75209;SDS011;63796;53.136;14.882;2022-10-18T16:14:35;7.00;;;4.58;;
75209;SDS011;63796;53.136;14.882;2022-10-18T16:17:03;9.68;;;3.70;;
75209;SDS011;63796;53.136;14.882;2022-10-18T16:19:36;8.85;;;3.85;;
75209;SDS011;63796;53.136;14.882;2022-10-18T16:22:16;8.58;;;4.00;;
75209;SDS011;63796;53.136;14.882;2022-10-18T16:24:51;8.00;;;3.77;;
75209;SDS011;63796;53.136;14.882;2022-10-18T16:27:33;10.15;;;4.03;;
75209;SDS011;63796;53.136;14.882;2022-10-18T16:30:00;7.72;;;3.60;;
75209;SDS011;63796;53.136;14.882;2022-10-18T16:32:36;8.48;;;3.85;;
75209;SDS011;63796;53.136;14.882;2022-10-18T16:35:05;17.02;;;6.67;;
75209;SDS011;63796;53.136;14.882;2022-10-18T16:37:39;13.57;;;7.83;;
75209;SDS011;63796;53.136;14.882;2022-10-18T16:40:25;15.90;;;7.60;;
75209;SDS011;63796;53.136;14.882;2022-10-18T16:42:52;22.42;;;11.50;;
75209;SDS011;63796;53.136;14.882;2022-10-18T16:45:40;19.25;;;10.30;;
75209;SDS011;63796;53.136;14.882;2022-10-18T16:48:00;9.95;;;6.22;;
75209;SDS011;63796;53.136;14.882;2022-10-18T16:50:27;15.30;;;6.70;;
75209;SDS011;63796;53.136;14.882;2022-10-18T16:53:05;31.07;;;18.02;;
75209;SDS011;63796;53.136;14.882;2022-10-18T16:55:35;40.35;;;25.52;;
75209;SDS011;63796;53.136;14.882;2022-10-18T16:58:04;16.12;;;9.43;;
75209;SDS011;63796;53.136;14.882;2022-10-18T17:00:39;11.50;;;5.60;;
75209;SDS011;63796;53.136;14.882;2022-10-18T17:03:06;10.77;;;5.63;;
75209;SDS011;63796;53.136;14.882;2022-10-18T17:05:33;13.78;;;6.87;;
75209;SDS011;63796;53.136;14.882;2022-10-18T17:08:00;21.23;;;8.45;;
75209;SDS011;63796;53.136;14.882;2022-10-18T17:10:27;14.10;;;5.28;;
75209;SDS011;63796;53.136;14.882;2022-10-18T17:13:01;15.55;;;7.15;;
75209;SDS011;63796;53.136;14.882;2022-10-18T17:15:28;13.40;;;6.13;;
75209;SDS011;63796;53.136;14.882;2022-10-18T17:17:54;11.30;;;4.97;;
75209;SDS011;63796;53.136;14.882;2022-10-18T17:20:26;10.93;;;5.12;;
75209;SDS011;63796;53.136;14.882;2022-10-18T17:22:53;14.33;;;7.78;;
75209;SDS011;63796;53.136;14.882;2022-10-18T17:25:19;16.57;;;8.33;;
75209;SDS011;63796;53.136;14.882;2022-10-18T17:27:46;74.53;;;36.40;;
75209;SDS011;63796;53.136;14.882;2022-10-18T17:30:13;67.80;;;33.92;;
75209;SDS011;63796;53.136;14.882;2022-10-18T17:32:40;93.07;;;41.83;;
75209;SDS011;63796;53.136;14.882;2022-10-18T17:35:09;80.28;;;34.20;;
75209;SDS011;63796;53.136;14.882;2022-10-18T17:37:37;49.00;;;23.67;;
75209;SDS011;63796;53.136;14.882;2022-10-18T17:40:05;23.50;;;12.73;;
75209;SDS011;63796;53.136;14.882;2022-10-18T17:42:33;24.50;;;10.55;;
75209;SDS011;63796;53.136;14.882;2022-10-18T17:45:00;29.65;;;14.30;;
75209;SDS011;63796;53.136;14.882;2022-10-18T17:47:27;30.65;;;15.45;;
75209;SDS011;63796;53.136;14.882;2022-10-18T17:49:54;40.45;;;18.02;;
75209;SDS011;63796;53.136;14.882;2022-10-18T17:52:21;33.63;;;16.73;;
75209;SDS011;63796;53.136;14.882;2022-10-18T17:54:48;35.05;;;15.48;;